Detall de PIREP

Printer-friendly versionPDF version

[2017/05/07 08:25:00]
Flight IATA:CT2201
Pilot Number:012
Company ICAO:CAT
Aircraft Type:B463/A
PAX:0
Aircraft Registration:CARGO
Departing Airport: LFOH
Destination Airport: LFMP
Alternate Airport:LEBL
Online: VATSIM
Route:DVL UN859 BEBIX UM616 LERGA UN869 MOKDI UY27 MEN J27 KELAM
Flight Level:F310
No Slew and time accel
No pause
Crash detect
Detect pilot in Cockpit between each 30 and 45 minutes
08:25 Zero fuel Weight: 75565 Lbs, Fuel Weight: 19510 Lbs
08:25 VATSIM:LFOH 070800Z AUTO 34005KT 5000 BR NSC 12/10 Q1020 NOSIG
08:25 VATSIM:LFMP 070800Z AUTO 32014KT 290V350 CAVOK 18/06 Q1021 NOSIG
08:27 Parking Brakes off
08:33 Take-off
08:33 Take off Weight: 94737 Lbs
08:33 Wind: 340º @ 005 Knots Heading: 225º
08:33 POS N49º 31´ 33´´ E000º 04´ 35´´
08:34 Flaps:2 at 151 Knots
08:34 Gear Up: 145 Knots
08:34 Flaps:1 at 146 Knots
08:34 Flaps:0 at 176 Knots
08:47 TOC
08:47 Fuel Weight: 17602 Lb
08:49 Wind:299º@048 Knots Heading: 169º Ground Speed: 427 Knots Altitude 31187 ft
09:04 Wind:304º@038 Knots Heading: 181º Ground Speed: 442 Knots Altitude 31213 ft
09:19 Wind:312º@060 Knots Heading: 110º Ground Speed: 466 Knots Altitude 31200 ft
09:34 Wind:292º@084 Knots Heading: 206º Ground Speed: 419 Knots Altitude 31233 ft
09:37 TOD
09:37 Fuel Weight: 14542 Lb
09:49 Wind:295º@019 Knots Heading: 157º Ground Speed: 276 Knots Altitude 7247 ft
09:53 Flaps:1 at 191 Knots
09:54 Flaps:2 at 166 Knots
09:54 Gear Down: 165 Knots
09:54 Flaps:3 at 151 Knots
09:56 Flaps:4 at 154 Knots
09:58 TouchDown:Rate -198 ft/min Speed: 117 Knots
09:59 VATSIM:LFMP 070930Z AUTO 31017KT CAVOK 20/06 Q1021 TEMPO 33020G32KT
09:59 Land
09:59 Wind:309º@019 Knots
09:59 Heading: 330º
09:59 Flight Duration: 01:26
09:59 Landing Weight: 89486 Lbs
09:59 POS N42º 45´01´´ E002º 51´ 53´´
10:03 Parking brakes on
10:03 Block to Block Duration: 01:37
10:03 Final Fuel: 13767 Lbls
10:03 Spent Fuel: 5742 Lbls
10:03 Flight Length: 532 NM
10:03 TOD Land Length: 98 NM

Exportar CSV

Powered by Drupal - Modified by Danger4k